LERS/REU METAR and TAF weather

Enter ICAO airport designator
Station Type Date Time Source
LERS METAR 2019/08/21 22:00 UTC NOAA

LERS 212200Z 36005KT 9999 FEW020 24/20 Q1019


Station Type Date Time Source
LERS Decoded METAR 2019/08/21 22:00 UTC NOAA

Station name not available
Aug 21, 2019 - 06:00 PM EDT / 2019.08.21 2200 UTC
Wind: from the N (360 degrees) at 6 MPH (5 KT):0
Visibility: greater than 7 mile(s):0
Sky conditions: mostly clear
Temperature: 75 F (24 C)
Dew Point: 68 F (20 C)
Relative Humidity: 78%
Pressure (altimeter): 30.09 in. Hg (1019 hPa)
ob: LERS 212200Z 36005KT 9999 FEW020 24/20 Q1019
cycle: 22

Station Type Date Time Source
LERS TAF 2019/08/21 21:31 UTC NOAA

TAF LERS 212000Z 2121/2221 VRB03KT 9999 SCT030 TX30/2213Z TN20/2205Z PROB40
TEMPO 2121/2202 4000 SHRA FEW020CB PROB30
TEMPO 2121/2201 3000 TSRA BKN014 FEW020CB

Example: see airport list